Esler Regional Airport
KESF : now visible

Airfield :











YOU CAN JOIN US ON...

 
LOGIN :

Register | Disclaimer

   EN    FR    IT 

 









Legend :    VFR   Marginal VFR   IFR   Intensive IFR   Very Intensive IFR
Visi :
Ceiling :
>= 8 km
>= 3000ft
5 to 8 km
1000 to 3000 ft
1500m to 5 km
500 to 1000 ft
800 to 1500m
200 to 500 ft
< 800m
< 200 ft
Symbols :   Thunderstorms  Fog  Heavy snow  Heavy precipitations  Wind > 20 kt






- Airport Elevation : 112 ft


KESF - Esler Regional

CURRENT METAR :
  • 250253Z AUTO 07004KT 10SM FEW003 21/21 A2981 RMK AO2 RAE50 SLP093 P0004 60043 T02110206 58015

EXPIRED METARs :
  • 250216Z AUTO 09004KT 7SM -RA BKN120 22/21 A2983 RMK AO2 LTG DSNT N-E P0003 T02170206
  • 250201Z AUTO 10004KT 6SM VCTS -RA BR BKN110 22/21 A2984 RMK AO2 LTG DSNT ALQDS P0001 T02170211
  • 250149Z AUTO 14005KT 5SM RA BR BKN110 22/21 A2985 RMK AO2 LTG DSNT NE AND SE P0018
  • 250134Z AUTO 18003KT 5SM VCTS -RA BR SCT100 BKN120 22/21 A2986 RMK AO2 LTG DSNT ALQDS P0014 T02220211
  • 250053Z AUTO 18006KT 4SM RA BR FEW011 BKN090 OVC120 23/22 A2985 RMK AO2 LTG DSNT NE-S RAB08 SLP107 P0020 T02280217
  • 250042Z AUTO 19005KT 3SM RA BR SCT012 BKN075 OVC120 23/22 A2985 RMK AO2 LTG DSNT ALQDS RAB08 P0017 T02330222
  • 250027Z AUTO 15010KT 2SM RA BR SCT010 BKN018 OVC055 24/23 A2984 RMK AO2 LTG DSNT NE-S RAB08 PRESRR P0010 T02390228
  • 250015Z AUTO 19005KT 1 3/4SM +RA BR SCT019 BKN040 OVC080 24/23 A2983 RMK AO2 LTG DSNT E-SW RAB08 P0006 T02440228

TAF N/A
KZHU FIR / North America



MET'MAP, your aeronautical weather chart ! - Copyright ORBIFLY December 2007 - Disclaimer

ORBIFLY MET'MAP TEAM :

Programming & Development : Alexandra Zaïnal
Original concept : Baudouin d'Aumeries
Technical & hardware support : Manuel Goepfert
Assistance : Marc-Olivier Méhu

Contact : metmap@orbifly.com




SOURCES & CREDITS :

   NOAA       Earth
Advisory